sensor_id;sensor_type;location;lat;lon;timestamp;P1;durP1;ratioP1;P2;durP2;ratioP2
20026;SDS011;10174;42.688;23.344;2023-12-28T00:01:49;69.88;;;30.17;;
20026;SDS011;10174;42.688;23.344;2023-12-28T00:04:15;68.35;;;29.65;;
20026;SDS011;10174;42.688;23.344;2023-12-28T00:06:41;78.18;;;32.85;;
20026;SDS011;10174;42.688;23.344;2023-12-28T00:09:07;75.25;;;32.85;;
20026;SDS011;10174;42.688;23.344;2023-12-28T00:11:33;80.72;;;34.25;;
20026;SDS011;10174;42.688;23.344;2023-12-28T00:13:59;86.15;;;35.22;;
20026;SDS011;10174;42.688;23.344;2023-12-28T00:16:24;83.68;;;34.40;;
20026;SDS011;10174;42.688;23.344;2023-12-28T00:18:50;87.35;;;36.95;;
20026;SDS011;10174;42.688;23.344;2023-12-28T00:21:15;99.72;;;38.20;;
20026;SDS011;10174;42.688;23.344;2023-12-28T00:23:41;98.18;;;38.47;;
20026;SDS011;10174;42.688;23.344;2023-12-28T00:26:06;101.75;;;40.97;;
20026;SDS011;10174;42.688;23.344;2023-12-28T00:28:32;90.50;;;38.47;;
20026;SDS011;10174;42.688;23.344;2023-12-28T00:30:57;96.75;;;39.50;;
20026;SDS011;10174;42.688;23.344;2023-12-28T00:33:23;88.97;;;36.95;;
20026;SDS011;10174;42.688;23.344;2023-12-28T00:35:48;90.57;;;37.58;;
20026;SDS011;10174;42.688;23.344;2023-12-28T00:38:14;97.55;;;39.28;;
20026;SDS011;10174;42.688;23.344;2023-12-28T00:40:40;88.35;;;36.05;;
20026;SDS011;10174;42.688;23.344;2023-12-28T00:43:06;95.97;;;38.78;;
20026;SDS011;10174;42.688;23.344;2023-12-28T00:45:32;98.13;;;37.85;;
20026;SDS011;10174;42.688;23.344;2023-12-28T00:47:57;92.30;;;38.22;;
20026;SDS011;10174;42.688;23.344;2023-12-28T00:50:23;100.30;;;38.80;;
20026;SDS011;10174;42.688;23.344;2023-12-28T00:52:48;86.80;;;38.05;;
20026;SDS011;10174;42.688;23.344;2023-12-28T00:55:14;97.88;;;39.47;;
20026;SDS011;10174;42.688;23.344;2023-12-28T00:57:39;82.55;;;38.55;;
20026;SDS011;10174;42.688;23.344;2023-12-28T01:00:05;93.90;;;36.40;;
20026;SDS011;10174;42.688;23.344;2023-12-28T01:02:31;86.68;;;37.50;;
20026;SDS011;10174;42.688;23.344;2023-12-28T01:04:56;85.78;;;36.83;;
20026;SDS011;10174;42.688;23.344;2023-12-28T01:07:22;88.53;;;37.65;;
20026;SDS011;10174;42.688;23.344;2023-12-28T01:09:47;87.45;;;36.78;;
20026;SDS011;10174;42.688;23.344;2023-12-28T01:12:13;97.15;;;36.88;;
20026;SDS011;10174;42.688;23.344;2023-12-28T01:14:38;79.22;;;35.05;;
20026;SDS011;10174;42.688;23.344;2023-12-28T01:17:04;84.57;;;34.60;;
20026;SDS011;10174;42.688;23.344;2023-12-28T01:19:29;82.82;;;33.78;;
20026;SDS011;10174;42.688;23.344;2023-12-28T01:21:54;80.47;;;33.17;;
20026;SDS011;10174;42.688;23.344;2023-12-28T01:24:20;73.57;;;30.55;;
20026;SDS011;10174;42.688;23.344;2023-12-28T01:26:46;74.00;;;31.35;;
20026;SDS011;10174;42.688;23.344;2023-12-28T01:29:11;75.45;;;30.60;;
20026;SDS011;10174;42.688;23.344;2023-12-28T01:31:37;66.90;;;28.73;;
20026;SDS011;10174;42.688;23.344;2023-12-28T01:34:04;64.00;;;26.90;;
20026;SDS011;10174;42.688;23.344;2023-12-28T01:36:29;64.93;;;25.67;;
20026;SDS011;10174;42.688;23.344;2023-12-28T01:38:55;58.17;;;24.90;;
20026;SDS011;10174;42.688;23.344;2023-12-28T01:41:21;61.60;;;25.05;;
20026;SDS011;10174;42.688;23.344;2023-12-28T01:43:46;63.75;;;27.00;;
20026;SDS011;10174;42.688;23.344;2023-12-28T01:46:16;65.35;;;26.50;;
20026;SDS011;10174;42.688;23.344;2023-12-28T01:48:43;64.70;;;26.15;;
20026;SDS011;10174;42.688;23.344;2023-12-28T01:51:11;60.78;;;23.52;;
20026;SDS011;10174;42.688;23.344;2023-12-28T01:53:39;52.50;;;22.38;;
20026;SDS011;10174;42.688;23.344;2023-12-28T01:56:05;53.05;;;21.00;;
20026;SDS011;10174;42.688;23.344;2023-12-28T01:58:32;38.72;;;18.35;;
20026;SDS011;10174;42.688;23.344;2023-12-28T02:01:00;38.92;;;18.00;;
20026;SDS011;10174;42.688;23.344;2023-12-28T02:03:26;39.85;;;17.23;;
20026;SDS011;10174;42.688;23.344;2023-12-28T02:05:52;40.20;;;17.77;;
20026;SDS011;10174;42.688;23.344;2023-12-28T02:08:18;47.45;;;18.88;;
20026;SDS011;10174;42.688;23.344;2023-12-28T02:10:44;44.90;;;18.77;;
20026;SDS011;10174;42.688;23.344;2023-12-28T02:13:09;50.28;;;18.80;;
20026;SDS011;10174;42.688;23.344;2023-12-28T02:15:35;42.78;;;18.77;;
20026;SDS011;10174;42.688;23.344;2023-12-28T02:18:02;45.33;;;18.52;;
20026;SDS011;10174;42.688;23.344;2023-12-28T02:20:32;47.72;;;18.48;;
20026;SDS011;10174;42.688;23.344;2023-12-28T02:23:00;41.83;;;17.23;;
20026;SDS011;10174;42.688;23.344;2023-12-28T02:25:26;42.58;;;19.35;;
20026;SDS011;10174;42.688;23.344;2023-12-28T02:27:51;44.33;;;18.60;;
20026;SDS011;10174;42.688;23.344;2023-12-28T02:30:17;47.75;;;17.70;;
20026;SDS011;10174;42.688;23.344;2023-12-28T02:35:44;49.58;;;19.15;;
20026;SDS011;10174;42.688;23.344;2023-12-28T02:38:16;49.33;;;20.33;;
20026;SDS011;10174;42.688;23.344;2023-12-28T02:40:44;58.35;;;22.13;;
20026;SDS011;10174;42.688;23.344;2023-12-28T02:43:10;57.03;;;21.52;;
20026;SDS011;10174;42.688;23.344;2023-12-28T02:45:37;49.72;;;22.27;;
20026;SDS011;10174;42.688;23.344;2023-12-28T02:48:03;57.33;;;24.88;;
20026;SDS011;10174;42.688;23.344;2023-12-28T02:50:30;68.40;;;26.13;;
20026;SDS011;10174;42.688;23.344;2023-12-28T02:52:56;77.25;;;29.98;;
20026;SDS011;10174;42.688;23.344;2023-12-28T02:55:22;72.25;;;29.48;;
20026;SDS011;10174;42.688;23.344;2023-12-28T02:57:49;82.22;;;33.33;;
20026;SDS011;10174;42.688;23.344;2023-12-28T03:00:15;76.63;;;33.72;;
20026;SDS011;10174;42.688;23.344;2023-12-28T03:02:41;95.97;;;38.03;;
20026;SDS011;10174;42.688;23.344;2023-12-28T03:05:06;79.43;;;32.58;;
20026;SDS011;10174;42.688;23.344;2023-12-28T03:07:33;108.35;;;44.85;;
20026;SDS011;10174;42.688;23.344;2023-12-28T03:09:59;98.03;;;38.22;;
20026;SDS011;10174;42.688;23.344;2023-12-28T03:12:24;92.05;;;39.58;;
20026;SDS011;10174;42.688;23.344;2023-12-28T03:14:50;93.35;;;39.25;;
20026;SDS011;10174;42.688;23.344;2023-12-28T03:17:15;92.38;;;39.00;;
20026;SDS011;10174;42.688;23.344;2023-12-28T03:19:41;98.20;;;41.22;;
20026;SDS011;10174;42.688;23.344;2023-12-28T03:22:06;102.95;;;39.22;;
20026;SDS011;10174;42.688;23.344;2023-12-28T03:24:32;106.45;;;43.33;;
20026;SDS011;10174;42.688;23.344;2023-12-28T03:26:58;109.25;;;44.78;;
20026;SDS011;10174;42.688;23.344;2023-12-28T03:29:23;107.32;;;43.53;;
20026;SDS011;10174;42.688;23.344;2023-12-28T03:31:49;109.97;;;43.95;;
20026;SDS011;10174;42.688;23.344;2023-12-28T03:34:15;110.60;;;45.35;;
20026;SDS011;10174;42.688;23.344;2023-12-28T03:36:40;102.47;;;44.92;;
20026;SDS011;10174;42.688;23.344;2023-12-28T03:39:06;118.32;;;46.10;;
20026;SDS011;10174;42.688;23.344;2023-12-28T03:41:32;114.97;;;46.30;;
20026;SDS011;10174;42.688;23.344;2023-12-28T03:43:58;108.53;;;44.85;;
20026;SDS011;10174;42.688;23.344;2023-12-28T03:46:23;106.53;;;45.22;;
20026;SDS011;10174;42.688;23.344;2023-12-28T03:48:49;107.25;;;46.05;;
20026;SDS011;10174;42.688;23.344;2023-12-28T03:51:15;113.45;;;45.83;;
20026;SDS011;10174;42.688;23.344;2023-12-28T03:53:41;117.82;;;46.38;;
20026;SDS011;10174;42.688;23.344;2023-12-28T03:56:07;113.57;;;45.33;;
20026;SDS011;10174;42.688;23.344;2023-12-28T03:58:32;106.45;;;45.75;;
20026;SDS011;10174;42.688;23.344;2023-12-28T04:00:58;105.97;;;46.33;;
20026;SDS011;10174;42.688;23.344;2023-12-28T04:03:23;103.38;;;43.83;;
20026;SDS011;10174;42.688;23.344;2023-12-28T04:05:50;101.68;;;42.65;;
20026;SDS011;10174;42.688;23.344;2023-12-28T04:08:16;117.68;;;45.65;;
20026;SDS011;10174;42.688;23.344;2023-12-28T04:10:41;108.85;;;46.33;;
20026;SDS011;10174;42.688;23.344;2023-12-28T04:13:07;109.90;;;45.08;;
20026;SDS011;10174;42.688;23.344;2023-12-28T04:15:32;108.68;;;44.58;;
20026;SDS011;10174;42.688;23.344;2023-12-28T04:17:58;108.68;;;46.30;;
20026;SDS011;10174;42.688;23.344;2023-12-28T04:20:23;108.78;;;46.92;;
20026;SDS011;10174;42.688;23.344;2023-12-28T04:22:49;109.65;;;45.40;;
20026;SDS011;10174;42.688;23.344;2023-12-28T04:25:14;111.07;;;45.85;;
20026;SDS011;10174;42.688;23.344;2023-12-28T04:27:43;109.22;;;45.63;;
20026;SDS011;10174;42.688;23.344;2023-12-28T04:30:11;118.13;;;45.42;;
20026;SDS011;10174;42.688;23.344;2023-12-28T04:32:38;112.40;;;46.42;;
20026;SDS011;10174;42.688;23.344;2023-12-28T04:35:04;117.95;;;46.20;;
20026;SDS011;10174;42.688;23.344;2023-12-28T04:37:30;111.50;;;45.35;;
20026;SDS011;10174;42.688;23.344;2023-12-28T04:39:57;111.88;;;44.67;;
20026;SDS011;10174;42.688;23.344;2023-12-28T04:42:23;110.07;;;45.85;;
20026;SDS011;10174;42.688;23.344;2023-12-28T04:44:48;105.20;;;44.78;;
20026;SDS011;10174;42.688;23.344;2023-12-28T04:47:14;112.75;;;46.35;;
20026;SDS011;10174;42.688;23.344;2023-12-28T04:49:39;107.00;;;43.20;;
20026;SDS011;10174;42.688;23.344;2023-12-28T04:52:05;103.00;;;40.80;;
20026;SDS011;10174;42.688;23.344;2023-12-28T04:54:30;96.78;;;40.60;;
20026;SDS011;10174;42.688;23.344;2023-12-28T04:56:57;102.57;;;40.95;;
20026;SDS011;10174;42.688;23.344;2023-12-28T04:59:23;94.70;;;39.85;;
20026;SDS011;10174;42.688;23.344;2023-12-28T05:01:48;95.55;;;39.92;;
20026;SDS011;10174;42.688;23.344;2023-12-28T05:04:14;90.72;;;38.13;;
20026;SDS011;10174;42.688;23.344;2023-12-28T05:06:39;89.93;;;36.85;;
20026;SDS011;10174;42.688;23.344;2023-12-28T05:09:05;89.38;;;38.35;;
20026;SDS011;10174;42.688;23.344;2023-12-28T05:11:30;101.40;;;37.95;;
20026;SDS011;10174;42.688;23.344;2023-12-28T05:13:56;89.45;;;40.45;;
20026;SDS011;10174;42.688;23.344;2023-12-28T05:16:21;94.13;;;37.95;;
20026;SDS011;10174;42.688;23.344;2023-12-28T05:18:47;93.70;;;36.65;;
20026;SDS011;10174;42.688;23.344;2023-12-28T05:21:13;96.50;;;36.30;;
20026;SDS011;10174;42.688;23.344;2023-12-28T05:23:39;122.53;;;48.92;;
20026;SDS011;10174;42.688;23.344;2023-12-28T05:26:04;118.38;;;48.70;;
20026;SDS011;10174;42.688;23.344;2023-12-28T05:28:30;123.95;;;51.22;;
20026;SDS011;10174;42.688;23.344;2023-12-28T05:30:55;126.70;;;51.35;;
20026;SDS011;10174;42.688;23.344;2023-12-28T05:33:21;135.23;;;54.17;;
20026;SDS011;10174;42.688;23.344;2023-12-28T05:35:47;131.77;;;52.67;;
20026;SDS011;10174;42.688;23.344;2023-12-28T05:38:13;135.32;;;54.15;;
20026;SDS011;10174;42.688;23.344;2023-12-28T05:40:38;131.57;;;49.63;;
20026;SDS011;10174;42.688;23.344;2023-12-28T05:43:04;108.82;;;42.75;;
20026;SDS011;10174;42.688;23.344;2023-12-28T05:45:29;102.18;;;41.53;;
20026;SDS011;10174;42.688;23.344;2023-12-28T05:47:55;96.43;;;41.40;;
20026;SDS011;10174;42.688;23.344;2023-12-28T05:50:20;99.32;;;42.40;;
20026;SDS011;10174;42.688;23.344;2023-12-28T05:52:46;101.32;;;43.40;;
20026;SDS011;10174;42.688;23.344;2023-12-28T05:55:11;104.10;;;42.30;;
20026;SDS011;10174;42.688;23.344;2023-12-28T05:57:37;106.63;;;41.95;;
20026;SDS011;10174;42.688;23.344;2023-12-28T06:00:02;104.10;;;43.40;;
20026;SDS011;10174;42.688;23.344;2023-12-28T06:02:29;108.88;;;46.38;;
20026;SDS011;10174;42.688;23.344;2023-12-28T06:04:55;119.80;;;46.80;;
20026;SDS011;10174;42.688;23.344;2023-12-28T06:07:20;112.70;;;46.05;;
20026;SDS011;10174;42.688;23.344;2023-12-28T06:09:46;116.03;;;45.17;;
20026;SDS011;10174;42.688;23.344;2023-12-28T06:12:11;108.82;;;45.85;;
20026;SDS011;10174;42.688;23.344;2023-12-28T06:14:37;109.68;;;44.75;;
20026;SDS011;10174;42.688;23.344;2023-12-28T06:17:03;110.38;;;45.40;;
20026;SDS011;10174;42.688;23.344;2023-12-28T06:19:28;110.18;;;45.20;;
20026;SDS011;10174;42.688;23.344;2023-12-28T06:21:54;107.38;;;44.45;;
20026;SDS011;10174;42.688;23.344;2023-12-28T06:24:20;112.53;;;46.30;;
20026;SDS011;10174;42.688;23.344;2023-12-28T06:26:45;112.05;;;45.47;;
20026;SDS011;10174;42.688;23.344;2023-12-28T06:29:10;113.90;;;46.90;;
20026;SDS011;10174;42.688;23.344;2023-12-28T06:31:37;98.43;;;45.15;;
20026;SDS011;10174;42.688;23.344;2023-12-28T06:34:05;110.38;;;46.25;;
20026;SDS011;10174;42.688;23.344;2023-12-28T06:36:32;122.97;;;45.90;;
20026;SDS011;10174;42.688;23.344;2023-12-28T06:38:58;120.53;;;46.65;;
20026;SDS011;10174;42.688;23.344;2023-12-28T06:41:27;106.22;;;46.05;;
20026;SDS011;10174;42.688;23.344;2023-12-28T06:43:52;108.70;;;46.50;;
20026;SDS011;10174;42.688;23.344;2023-12-28T06:46:18;109.93;;;46.03;;
20026;SDS011;10174;42.688;23.344;2023-12-28T06:48:44;116.18;;;45.22;;
20026;SDS011;10174;42.688;23.344;2023-12-28T06:51:10;109.63;;;45.03;;
20026;SDS011;10174;42.688;23.344;2023-12-28T06:53:42;110.80;;;47.10;;
20026;SDS011;10174;42.688;23.344;2023-12-28T06:56:07;111.68;;;48.08;;
20026;SDS011;10174;42.688;23.344;2023-12-28T06:58:34;116.47;;;49.28;;
20026;SDS011;10174;42.688;23.344;2023-12-28T07:01:02;114.07;;;47.60;;
20026;SDS011;10174;42.688;23.344;2023-12-28T07:03:28;109.07;;;46.67;;
20026;SDS011;10174;42.688;23.344;2023-12-28T07:05:57;107.53;;;47.28;;
20026;SDS011;10174;42.688;23.344;2023-12-28T07:08:25;119.40;;;48.80;;
20026;SDS011;10174;42.688;23.344;2023-12-28T07:10:51;109.70;;;48.30;;
20026;SDS011;10174;42.688;23.344;2023-12-28T07:13:17;114.78;;;49.33;;
20026;SDS011;10174;42.688;23.344;2023-12-28T07:15:42;125.30;;;49.47;;
20026;SDS011;10174;42.688;23.344;2023-12-28T07:18:08;119.57;;;47.17;;
20026;SDS011;10174;42.688;23.344;2023-12-28T07:20:33;123.32;;;48.83;;
20026;SDS011;10174;42.688;23.344;2023-12-28T07:22:59;111.65;;;46.97;;
20026;SDS011;10174;42.688;23.344;2023-12-28T07:25:24;114.55;;;47.17;;
20026;SDS011;10174;42.688;23.344;2023-12-28T07:27:50;117.90;;;47.50;;
20026;SDS011;10174;42.688;23.344;2023-12-28T07:30:16;111.13;;;47.28;;
20026;SDS011;10174;42.688;23.344;2023-12-28T07:32:42;110.75;;;46.70;;
20026;SDS011;10174;42.688;23.344;2023-12-28T07:35:08;109.40;;;46.17;;
20026;SDS011;10174;42.688;23.344;2023-12-28T07:37:34;95.05;;;40.75;;
20026;SDS011;10174;42.688;23.344;2023-12-28T07:40:00;95.55;;;41.38;;
20026;SDS011;10174;42.688;23.344;2023-12-28T07:42:25;81.97;;;37.65;;
20026;SDS011;10174;42.688;23.344;2023-12-28T07:44:51;89.75;;;39.38;;
20026;SDS011;10174;42.688;23.344;2023-12-28T07:47:17;99.53;;;40.97;;
20026;SDS011;10174;42.688;23.344;2023-12-28T07:49:42;110.47;;;44.30;;
20026;SDS011;10174;42.688;23.344;2023-12-28T07:52:07;106.68;;;48.88;;
20026;SDS011;10174;42.688;23.344;2023-12-28T07:54:33;102.63;;;46.03;;
20026;SDS011;10174;42.688;23.344;2023-12-28T07:56:59;102.10;;;43.75;;
20026;SDS011;10174;42.688;23.344;2023-12-28T07:59:25;110.60;;;45.80;;
20026;SDS011;10174;42.688;23.344;2023-12-28T08:01:50;103.78;;;45.67;;
20026;SDS011;10174;42.688;23.344;2023-12-28T08:04:16;96.40;;;42.28;;
20026;SDS011;10174;42.688;23.344;2023-12-28T08:06:41;100.95;;;45.42;;
20026;SDS011;10174;42.688;23.344;2023-12-28T08:09:07;105.53;;;44.63;;
20026;SDS011;10174;42.688;23.344;2023-12-28T08:11:34;109.10;;;43.05;;
20026;SDS011;10174;42.688;23.344;2023-12-28T08:13:59;110.47;;;43.72;;
20026;SDS011;10174;42.688;23.344;2023-12-28T08:16:25;101.03;;;44.92;;
20026;SDS011;10174;42.688;23.344;2023-12-28T08:18:51;106.32;;;45.25;;
20026;SDS011;10174;42.688;23.344;2023-12-28T08:21:17;108.78;;;47.10;;
20026;SDS011;10174;42.688;23.344;2023-12-28T08:23:42;101.47;;;44.25;;
20026;SDS011;10174;42.688;23.344;2023-12-28T08:26:07;102.03;;;45.40;;
20026;SDS011;10174;42.688;23.344;2023-12-28T08:28:33;99.07;;;43.22;;
20026;SDS011;10174;42.688;23.344;2023-12-28T08:30:58;94.60;;;42.80;;
20026;SDS011;10174;42.688;23.344;2023-12-28T08:33:24;91.80;;;41.53;;
20026;SDS011;10174;42.688;23.344;2023-12-28T08:35:50;105.03;;;43.17;;
20026;SDS011;10174;42.688;23.344;2023-12-28T08:38:16;118.88;;;51.47;;
20026;SDS011;10174;42.688;23.344;2023-12-28T08:40:41;127.88;;;50.25;;
20026;SDS011;10174;42.688;23.344;2023-12-28T08:43:07;114.70;;;49.95;;
20026;SDS011;10174;42.688;23.344;2023-12-28T08:45:32;199.73;;;80.30;;
20026;SDS011;10174;42.688;23.344;2023-12-28T08:47:59;130.40;;;57.38;;
20026;SDS011;10174;42.688;23.344;2023-12-28T08:50:25;145.52;;;65.18;;
20026;SDS011;10174;42.688;23.344;2023-12-28T08:52:50;148.40;;;62.75;;
20026;SDS011;10174;42.688;23.344;2023-12-28T08:55:16;154.20;;;65.20;;
20026;SDS011;10174;42.688;23.344;2023-12-28T08:57:41;142.65;;;61.53;;
20026;SDS011;10174;42.688;23.344;2023-12-28T09:00:07;144.30;;;64.10;;
20026;SDS011;10174;42.688;23.344;2023-12-28T09:02:33;122.22;;;56.53;;
20026;SDS011;10174;42.688;23.344;2023-12-28T09:04:58;153.25;;;64.00;;
20026;SDS011;10174;42.688;23.344;2023-12-28T09:07:24;148.38;;;63.00;;
20026;SDS011;10174;42.688;23.344;2023-12-28T09:09:50;134.98;;;60.28;;
20026;SDS011;10174;42.688;23.344;2023-12-28T09:12:15;145.05;;;60.53;;
20026;SDS011;10174;42.688;23.344;2023-12-28T09:14:41;124.40;;;54.58;;
20026;SDS011;10174;42.688;23.344;2023-12-28T09:17:06;132.05;;;55.85;;
20026;SDS011;10174;42.688;23.344;2023-12-28T09:19:32;120.93;;;54.47;;
20026;SDS011;10174;42.688;23.344;2023-12-28T09:21:57;130.95;;;54.20;;
20026;SDS011;10174;42.688;23.344;2023-12-28T09:24:23;119.68;;;51.53;;
20026;SDS011;10174;42.688;23.344;2023-12-28T09:26:48;114.50;;;51.53;;
20026;SDS011;10174;42.688;23.344;2023-12-28T09:29:14;113.15;;;48.35;;
20026;SDS011;10174;42.688;23.344;2023-12-28T09:31:40;112.25;;;48.83;;
20026;SDS011;10174;42.688;23.344;2023-12-28T09:34:05;105.95;;;47.90;;
20026;SDS011;10174;42.688;23.344;2023-12-28T09:36:31;108.63;;;47.92;;
20026;SDS011;10174;42.688;23.344;2023-12-28T09:38:56;99.43;;;45.45;;
20026;SDS011;10174;42.688;23.344;2023-12-28T09:41:25;94.80;;;43.22;;
20026;SDS011;10174;42.688;23.344;2023-12-28T09:43:58;95.45;;;44.33;;
20026;SDS011;10174;42.688;23.344;2023-12-28T09:46:43;102.22;;;46.42;;
20026;SDS011;10174;42.688;23.344;2023-12-28T09:49:11;102.03;;;43.22;;
20026;SDS011;10174;42.688;23.344;2023-12-28T09:51:37;92.13;;;42.60;;
20026;SDS011;10174;42.688;23.344;2023-12-28T09:54:05;94.30;;;44.22;;
20026;SDS011;10174;42.688;23.344;2023-12-28T09:56:32;106.35;;;44.33;;
20026;SDS011;10174;42.688;23.344;2023-12-28T09:58:57;88.22;;;42.97;;
20026;SDS011;10174;42.688;23.344;2023-12-28T10:01:24;129.73;;;55.15;;
20026;SDS011;10174;42.688;23.344;2023-12-28T10:03:49;101.03;;;46.95;;
20026;SDS011;10174;42.688;23.344;2023-12-28T10:06:15;104.30;;;47.47;;
20026;SDS011;10174;42.688;23.344;2023-12-28T10:08:45;99.80;;;44.72;;
20026;SDS011;10174;42.688;23.344;2023-12-28T10:11:11;100.00;;;47.78;;
20026;SDS011;10174;42.688;23.344;2023-12-28T10:13:37;93.32;;;44.38;;
20026;SDS011;10174;42.688;23.344;2023-12-28T10:16:02;108.40;;;49.13;;
20026;SDS011;10174;42.688;23.344;2023-12-28T10:18:28;107.38;;;47.58;;
20026;SDS011;10174;42.688;23.344;2023-12-28T10:20:54;101.65;;;46.22;;
20026;SDS011;10174;42.688;23.344;2023-12-28T10:23:20;100.50;;;45.20;;
20026;SDS011;10174;42.688;23.344;2023-12-28T10:25:49;99.40;;;47.75;;
20026;SDS011;10174;42.688;23.344;2023-12-28T10:28:18;100.38;;;45.15;;
20026;SDS011;10174;42.688;23.344;2023-12-28T10:30:45;99.65;;;44.60;;
20026;SDS011;10174;42.688;23.344;2023-12-28T10:33:10;92.05;;;44.60;;
20026;SDS011;10174;42.688;23.344;2023-12-28T10:35:36;99.15;;;46.45;;
20026;SDS011;10174;42.688;23.344;2023-12-28T10:38:01;98.72;;;47.63;;
20026;SDS011;10174;42.688;23.344;2023-12-28T10:40:29;110.28;;;48.53;;
20026;SDS011;10174;42.688;23.344;2023-12-28T10:43:05;104.07;;;45.13;;
20026;SDS011;10174;42.688;23.344;2023-12-28T10:45:32;91.40;;;44.65;;
20026;SDS011;10174;42.688;23.344;2023-12-28T10:48:04;101.75;;;45.35;;
20026;SDS011;10174;42.688;23.344;2023-12-28T10:50:40;97.22;;;44.05;;
20026;SDS011;10174;42.688;23.344;2023-12-28T10:53:20;96.70;;;44.53;;
20026;SDS011;10174;42.688;23.344;2023-12-28T10:58:52;89.47;;;42.65;;
20026;SDS011;10174;42.688;23.344;2023-12-28T11:01:30;93.03;;;42.28;;
20026;SDS011;10174;42.688;23.344;2023-12-28T11:04:02;190.50;;;78.60;;
20026;SDS011;10174;42.688;23.344;2023-12-28T11:06:35;96.18;;;43.97;;
20026;SDS011;10174;42.688;23.344;2023-12-28T11:09:03;91.70;;;42.33;;
20026;SDS011;10174;42.688;23.344;2023-12-28T11:11:30;93.47;;;41.75;;
20026;SDS011;10174;42.688;23.344;2023-12-28T11:13:57;85.32;;;41.05;;
20026;SDS011;10174;42.688;23.344;2023-12-28T11:16:25;87.93;;;40.53;;
20026;SDS011;10174;42.688;23.344;2023-12-28T11:18:51;96.45;;;40.88;;
20026;SDS011;10174;42.688;23.344;2023-12-28T11:21:19;93.45;;;39.35;;
20026;SDS011;10174;42.688;23.344;2023-12-28T11:23:45;90.45;;;40.22;;
20026;SDS011;10174;42.688;23.344;2023-12-28T11:26:16;83.03;;;38.72;;
20026;SDS011;10174;42.688;23.344;2023-12-28T11:28:45;87.30;;;39.78;;
20026;SDS011;10174;42.688;23.344;2023-12-28T11:31:13;87.85;;;38.92;;
20026;SDS011;10174;42.688;23.344;2023-12-28T11:33:46;93.72;;;39.38;;
20026;SDS011;10174;42.688;23.344;2023-12-28T11:36:20;78.55;;;37.90;;
20026;SDS011;10174;42.688;23.344;2023-12-28T11:38:50;79.03;;;39.28;;
20026;SDS011;10174;42.688;23.344;2023-12-28T11:41:24;76.90;;;36.75;;
20026;SDS011;10174;42.688;23.344;2023-12-28T11:43:53;90.03;;;39.38;;
20026;SDS011;10174;42.688;23.344;2023-12-28T11:46:22;83.57;;;39.65;;
20026;SDS011;10174;42.688;23.344;2023-12-28T11:48:48;90.93;;;37.90;;
20026;SDS011;10174;42.688;23.344;2023-12-28T11:51:14;73.40;;;35.20;;
20026;SDS011;10174;42.688;23.344;2023-12-28T11:53:39;71.00;;;34.78;;
20026;SDS011;10174;42.688;23.344;2023-12-28T11:56:06;68.03;;;35.00;;
20026;SDS011;10174;42.688;23.344;2023-12-28T11:58:34;74.90;;;34.67;;
20026;SDS011;10174;42.688;23.344;2023-12-28T12:01:01;74.18;;;33.55;;
20026;SDS011;10174;42.688;23.344;2023-12-28T12:03:27;69.72;;;33.25;;
20026;SDS011;10174;42.688;23.344;2023-12-28T12:05:55;61.97;;;31.98;;
20026;SDS011;10174;42.688;23.344;2023-12-28T12:08:22;64.40;;;32.03;;
20026;SDS011;10174;42.688;23.344;2023-12-28T12:10:48;66.85;;;32.35;;
20026;SDS011;10174;42.688;23.344;2023-12-28T12:13:13;68.07;;;32.58;;
20026;SDS011;10174;42.688;23.344;2023-12-28T12:15:39;61.60;;;30.25;;
20026;SDS011;10174;42.688;23.344;2023-12-28T12:18:05;59.10;;;31.25;;
20026;SDS011;10174;42.688;23.344;2023-12-28T12:20:31;62.53;;;31.35;;
20026;SDS011;10174;42.688;23.344;2023-12-28T12:22:57;71.05;;;33.58;;
20026;SDS011;10174;42.688;23.344;2023-12-28T12:25:28;71.40;;;31.38;;
20026;SDS011;10174;42.688;23.344;2023-12-28T12:27:54;69.05;;;32.67;;
20026;SDS011;10174;42.688;23.344;2023-12-28T12:30:19;66.35;;;30.55;;
20026;SDS011;10174;42.688;23.344;2023-12-28T12:32:45;60.38;;;29.83;;
20026;SDS011;10174;42.688;23.344;2023-12-28T12:35:11;64.97;;;29.73;;
20026;SDS011;10174;42.688;23.344;2023-12-28T12:37:37;50.72;;;27.80;;
20026;SDS011;10174;42.688;23.344;2023-12-28T12:40:03;53.17;;;25.70;;
20026;SDS011;10174;42.688;23.344;2023-12-28T12:42:31;49.65;;;26.75;;
20026;SDS011;10174;42.688;23.344;2023-12-28T12:44:57;54.30;;;26.35;;
20026;SDS011;10174;42.688;23.344;2023-12-28T12:47:23;57.42;;;25.90;;
20026;SDS011;10174;42.688;23.344;2023-12-28T12:49:48;53.35;;;24.60;;
20026;SDS011;10174;42.688;23.344;2023-12-28T12:52:16;54.63;;;24.02;;
20026;SDS011;10174;42.688;23.344;2023-12-28T12:54:41;56.65;;;22.38;;
20026;SDS011;10174;42.688;23.344;2023-12-28T12:57:07;49.30;;;24.10;;
20026;SDS011;10174;42.688;23.344;2023-12-28T12:59:33;52.95;;;26.52;;
20026;SDS011;10174;42.688;23.344;2023-12-28T13:02:00;47.97;;;23.20;;
20026;SDS011;10174;42.688;23.344;2023-12-28T13:04:26;56.63;;;29.45;;
20026;SDS011;10174;42.688;23.344;2023-12-28T13:06:52;53.78;;;27.83;;
20026;SDS011;10174;42.688;23.344;2023-12-28T13:09:17;55.40;;;28.08;;
20026;SDS011;10174;42.688;23.344;2023-12-28T13:11:43;61.67;;;31.45;;
20026;SDS011;10174;42.688;23.344;2023-12-28T13:14:09;58.90;;;28.77;;
20026;SDS011;10174;42.688;23.344;2023-12-28T13:16:34;68.80;;;29.20;;
20026;SDS011;10174;42.688;23.344;2023-12-28T13:19:00;67.53;;;29.30;;
20026;SDS011;10174;42.688;23.344;2023-12-28T13:21:25;60.53;;;29.20;;
20026;SDS011;10174;42.688;23.344;2023-12-28T13:23:51;57.13;;;27.48;;
20026;SDS011;10174;42.688;23.344;2023-12-28T13:26:16;57.67;;;27.40;;
20026;SDS011;10174;42.688;23.344;2023-12-28T13:28:42;51.15;;;26.83;;
20026;SDS011;10174;42.688;23.344;2023-12-28T13:31:07;55.80;;;27.80;;
20026;SDS011;10174;42.688;23.344;2023-12-28T13:33:33;61.75;;;27.73;;
20026;SDS011;10174;42.688;23.344;2023-12-28T13:35:58;61.88;;;28.27;;
20026;SDS011;10174;42.688;23.344;2023-12-28T13:38:24;63.10;;;28.15;;
20026;SDS011;10174;42.688;23.344;2023-12-28T13:40:49;52.25;;;27.70;;
20026;SDS011;10174;42.688;23.344;2023-12-28T13:43:15;56.25;;;28.10;;
20026;SDS011;10174;42.688;23.344;2023-12-28T13:45:41;59.22;;;28.58;;
20026;SDS011;10174;42.688;23.344;2023-12-28T13:48:06;59.92;;;28.77;;
20026;SDS011;10174;42.688;23.344;2023-12-28T13:50:33;65.95;;;31.05;;
20026;SDS011;10174;42.688;23.344;2023-12-28T13:52:59;67.82;;;28.27;;
20026;SDS011;10174;42.688;23.344;2023-12-28T13:55:24;60.25;;;29.55;;
20026;SDS011;10174;42.688;23.344;2023-12-28T13:57:50;69.82;;;28.55;;
20026;SDS011;10174;42.688;23.344;2023-12-28T14:00:15;60.88;;;27.45;;
20026;SDS011;10174;42.688;23.344;2023-12-28T14:02:41;53.42;;;25.23;;
20026;SDS011;10174;42.688;23.344;2023-12-28T14:05:07;65.53;;;28.10;;